Time;durP1;ratioP1;P1;durP2;ratioP2;P2;SDS_P1;SDS_P2;PMS_P1;PMS_P2;Temp;Humidity;BMP_temperature;BMP_pressure;BME280_temperature;BME280_humidity;BME280_pressure;Samples;Min_cycle;Max_cycle;Signal;HPM_P1;HPM_P2
2023/10/17 00:01:44;;;;;;;10.63;5.30;;;;;;;7.31;100.00;102174.59;6085469;19;20011;-71
2023/10/17 00:03:49;;;;;;;14.05;5.90;;;;;;;7.31;100.00;102170.22;6088485;19;20042;-71
2023/10/17 00:05:57;;;;;;;8.50;4.63;;;;;;;7.32;100.00;102171.97;6088779;19;20028;-71
2023/10/17 00:08:04;;;;;;;10.98;4.70;;;;;;;7.33;100.00;102163.25;6086301;19;20640;-73
2023/10/17 00:10:14;;;;;;;8.02;4.57;;;;;;;7.40;100.00;102159.72;6089955;19;20014;-74
2023/10/17 00:12:39;;;;;;;11.57;4.72;;;;;;;7.40;100.00;102164.94;6089498;19;20029;-73
2023/10/17 00:14:58;;;;;;;9.80;4.80;;;;;;;7.45;100.00;102160.56;6079850;19;20009;-74
2023/10/17 00:17:06;;;;;;;9.93;5.03;;;;;;;7.41;100.00;102161.44;6089063;19;20045;-74
2023/10/17 00:19:16;;;;;;;11.20;5.28;;;;;;;7.40;100.00;102157.09;6088972;19;20067;-72
2023/10/17 00:21:21;;;;;;;11.15;5.80;;;;;;;7.41;100.00;102157.97;6086519;19;20082;-74
2023/10/17 00:23:31;;;;;;;13.65;5.25;;;;;;;7.40;100.00;102151.88;6087464;19;20052;-72
2023/10/17 00:25:42;;;;;;;12.75;4.95;;;;;;;7.40;100.00;102156.25;6089097;19;20023;-75
2023/10/17 00:27:50;;;;;;;11.68;4.75;;;;;;;7.41;100.00;102168.44;6088020;19;20007;-73
2023/10/17 00:29:55;;;;;;;10.52;4.13;;;;;;;7.41;100.00;102158.84;6088151;19;20101;-74
2023/10/17 00:32:00;;;;;;;10.85;4.85;;;;;;;7.43;100.00;102151.00;6087898;19;20014;-72
2023/10/17 00:34:12;;;;;;;7.72;4.85;;;;;;;7.40;100.00;102146.66;6085579;19;20070;-73
2023/10/17 00:36:19;;;;;;;10.48;5.28;;;;;;;7.44;100.00;102142.25;6087000;19;20003;-72
2023/10/17 00:38:22;;;;;;;8.82;5.25;;;;;;;7.47;100.00;102137.00;6089732;19;20122;-71
2023/10/17 00:40:44;;;;;;;;;;;;;;;7.47;100.00;102134.38;6089888;19;20011;-71
2023/10/17 00:42:52;;;;;;;8.25;4.28;;;;;;;7.52;100.00;102140.44;6083914;19;19935;-71
2023/10/17 00:45:00;;;;;;;8.65;3.83;;;;;;;7.56;100.00;102141.31;6083614;19;20011;-71
2023/10/17 00:47:08;;;;;;;16.75;5.32;;;;;;;7.53;100.00;102144.81;6090236;19;20018;-73
2023/10/17 00:49:15;;;;;;;11.30;4.82;;;;;;;7.59;100.00;102147.38;6090070;19;20013;-73
2023/10/17 00:51:21;;;;;;;12.13;4.38;;;;;;;7.64;100.00;102139.50;6085780;19;20122;-74
2023/10/17 00:53:27;;;;;;;10.23;4.57;;;;;;;7.62;100.00;102149.13;6085599;19;20046;-73
2023/10/17 00:55:32;;;;;;;13.10;5.03;;;;;;;7.59;100.00;102141.28;6090623;19;20010;-73
2023/10/17 00:57:43;;;;;;;11.13;5.32;;;;;;;7.57;100.00;102141.28;6087913;19;20050;-74
2023/10/17 00:59:53;;;;;;;17.38;4.40;;;;;;;7.60;100.00;102145.63;6086005;19;20391;-74
2023/10/17 01:01:59;;;;;;;10.60;4.43;;;;;;;7.57;100.00;102140.44;6088247;19;20009;-74
2023/10/17 01:04:05;;;;;;;11.88;3.88;;;;;;;7.55;100.00;102140.41;6089673;19;20007;-72
2023/10/17 01:06:23;;;;;;;11.48;4.85;;;;;;;7.55;100.00;102139.56;6087715;19;19998;-74
2023/10/17 01:08:39;;;;;;;11.10;4.18;;;;;;;7.52;100.00;102135.22;6087710;19;20457;-74
2023/10/17 01:10:50;;;;;;;11.05;4.43;;;;;;;7.53;100.00;102141.31;6087870;19;20006;-74
2023/10/17 01:13:00;;;;;;;10.57;4.28;;;;;;;7.52;100.00;102139.59;6088044;19;20693;-74
2023/10/17 01:15:09;;;;;;;10.68;4.40;;;;;;;7.51;100.00;102127.41;6083986;19;20344;-75
2023/10/17 01:17:15;;;;;;;10.15;4.28;;;;;;;7.55;100.00;102124.72;6091937;19;20606;-76
2023/10/17 01:19:21;;;;;;;11.25;4.55;;;;;;;7.60;100.00;102111.63;6090769;19;20013;-74
2023/10/17 01:21:26;;;;;;;10.95;4.78;;;;;;;7.62;100.00;102112.50;6089656;19;20133;-73
2023/10/17 01:23:31;;;;;;;10.88;4.55;;;;;;;7.63;100.00;102107.22;6091112;19;20007;-74
2023/10/17 01:25:42;;;;;;;10.52;4.30;;;;;;;7.69;100.00;102114.19;6092546;19;20475;-74
2023/10/17 01:27:50;;;;;;;11.27;4.22;;;;;;;7.66;100.00;102109.84;6096057;19;20007;-73
2023/10/17 01:29:55;;;;;;;8.60;4.90;;;;;;;7.67;100.00;102106.34;6096085;19;20031;-74
2023/10/17 01:32:02;;;;;;;12.65;5.10;;;;;;;7.66;100.00;102101.09;6092164;19;20022;-74
2023/10/17 01:34:05;;;;;;;10.80;4.32;;;;;;;7.68;100.00;102104.56;6091990;19;20543;-74
2023/10/17 01:36:13;;;;;;;10.75;4.57;;;;;;;7.70;100.00;102102.81;6092924;19;20045;-73
2023/10/17 01:38:25;;;;;;;11.18;5.25;;;;;;;7.70;100.00;102103.69;6095248;19;20049;-74
2023/10/17 01:40:31;;;;;;;13.07;4.32;;;;;;;7.73;100.00;102102.78;6096474;19;20037;-74
2023/10/17 01:42:42;;;;;;;11.38;4.05;;;;;;;7.75;100.00;102105.41;6094489;19;20047;-73
2023/10/17 01:44:51;;;;;;;10.13;4.53;;;;;;;7.75;100.00;102105.41;6094309;19;20185;-73
2023/10/17 01:46:58;;;;;;;13.02;5.47;;;;;;;7.75;100.00;102098.41;6088597;19;20010;-74
2023/10/17 01:49:10;;;;;;;10.73;4.18;;;;;;;7.84;100.00;102087.84;6088435;19;20015;-74
2023/10/17 01:51:15;;;;;;;8.57;4.75;;;;;;;7.85;100.00;102080.91;5995655;19;2004888;-76
2023/10/17 01:53:22;;;;;;;12.05;4.60;;;;;;;7.88;100.00;102086.09;6084335;19;20026;-74
2023/10/17 01:55:25;;;;;;;11.35;4.25;;;;;;;7.86;100.00;102080.00;6086740;19;20359;-74
2023/10/17 01:57:30;;;;;;;11.88;4.28;;;;;;;7.88;100.00;102078.25;6087192;19;20011;-74
2023/10/17 01:59:38;;;;;;;10.65;4.63;;;;;;;7.86;100.00;102082.63;6083743;19;20061;-73
2023/10/17 02:01:48;;;;;;;9.38;3.75;;;;;;;7.91;100.00;102076.47;6085148;19;20063;-73
2023/10/17 02:04:01;;;;;;;13.98;4.65;;;;;;;7.91;100.00;102073.84;6086570;19;20063;-73
2023/10/17 02:06:13;;;;;;;9.85;4.05;;;;;;;7.89;100.00;102072.97;6086927;19;20033;-74
2023/10/17 02:08:21;;;;;;;13.93;4.20;;;;;;;7.87;100.00;102061.69;6086255;19;20482;-74
2023/10/17 02:10:28;;;;;;;11.27;4.43;;;;;;;7.89;100.00;102074.75;6083024;19;20010;-74
2023/10/17 02:12:40;;;;;;;9.90;3.53;;;;;;;7.83;100.00;102062.59;6085750;19;20018;-74
2023/10/17 02:14:49;;;;;;;10.80;3.72;;;;;;;7.79;100.00;102073.94;6085040;19;20473;-75
2023/10/17 02:16:55;;;;;;;18.10;4.95;;;;;;;7.85;100.00;102081.75;6085595;19;20016;-74
2023/10/17 02:19:03;;;;;;;10.02;4.13;;;;;;;7.76;100.00;102092.28;6084266;19;20557;-75
2023/10/17 02:21:08;;;;;;;8.38;3.42;;;;;;;7.71;100.00;102086.22;6081044;19;20344;-73
2023/10/17 02:23:19;;;;;;;11.07;3.97;;;;;;;7.71;100.00;102088.84;6076670;19;20015;-73
2023/10/17 02:25:31;;;;;;;9.45;4.57;;;;;;;7.69;100.00;102090.63;6085248;19;20010;-73
2023/10/17 02:27:38;;;;;;;7.70;4.25;;;;;;;7.64;100.00;102085.44;6083459;19;20003;-73
2023/10/17 02:29:48;;;;;;;9.15;4.13;;;;;;;7.64;100.00;102077.59;6082400;19;20923;-73
2023/10/17 02:31:54;;;;;;;13.30;4.07;;;;;;;7.66;100.00;102074.94;6084414;19;20015;-73
2023/10/17 02:34:01;;;;;;;9.63;3.90;;;;;;;7.60;100.00;102081.09;6086472;19;20074;-73
2023/10/17 02:36:08;;;;;;;10.70;4.30;;;;;;;7.53;100.00;102079.44;6084083;19;20006;-72
2023/10/17 02:38:16;;;;;;;9.68;4.13;;;;;;;7.52;100.00;102079.44;6086520;19;20074;-74
2023/10/17 02:40:23;;;;;;;11.45;4.32;;;;;;;7.53;100.00;102083.75;6084893;19;20499;-71
2023/10/17 02:42:25;;;;;;;9.70;4.80;;;;;;;7.52;100.00;102080.28;6083679;19;20017;-72
2023/10/17 02:44:31;;;;;;;12.52;4.65;;;;;;;7.56;100.00;102081.16;6084160;19;20010;-72
2023/10/17 02:46:41;;;;;;;9.45;3.88;;;;;;;7.57;100.00;102083.75;6084927;19;20006;-75
2023/10/17 02:48:51;;;;;;;8.35;3.50;;;;;;;7.61;100.00;102085.47;6085268;19;20002;-72
2023/10/17 02:51:03;;;;;;;14.82;5.40;;;;;;;7.61;100.00;102093.31;6083051;19;20049;-72
2023/10/17 02:53:12;;;;;;;10.18;4.88;;;;;;;7.65;100.00;102091.53;6079862;19;20348;-75
2023/10/17 02:55:23;;;;;;;9.43;3.78;;;;;;;7.67;100.00;102084.53;6080239;19;20402;-73
2023/10/17 02:57:33;;;;;;;12.23;3.78;;;;;;;7.74;100.00;102067.91;6082905;19;20054;-72
2023/10/17 02:59:39;;;;;;;8.50;4.28;;;;;;;7.77;100.00;102067.88;6081751;19;20010;-71
2023/10/17 03:01:53;;;;;;;9.25;4.60;;;;;;;7.70;100.00;102061.81;6086471;19;20018;-72
2023/10/17 03:03:58;;;;;;;11.80;4.47;;;;;;;7.75;100.00;102068.78;6097373;19;20014;-71
2023/10/17 03:06:05;;;;;;;8.55;3.95;;;;;;;7.69;100.00;102073.19;6096722;19;20006;-74
2023/10/17 03:08:15;;;;;;;15.10;5.63;;;;;;;7.70;100.00;102071.44;6095922;19;20545;-73
2023/10/17 03:10:36;;;;;;;10.30;3.78;;;;;;;7.65;100.00;102078.44;6096445;19;20082;-74
2023/10/17 03:12:53;;;;;;;10.07;4.25;;;;;;;7.67;100.00;102085.41;6093473;19;20462;-73
2023/10/17 03:17:19;;;;;;;9.77;3.83;;;;;;;7.61;100.00;102077.63;6092658;19;20085;-71
2023/10/17 03:19:26;;;;;;;11.10;4.15;;;;;;;7.62;100.00;102068.88;6088922;19;20467;-72
2023/10/17 03:21:33;;;;;;;9.57;4.45;;;;;;;7.60;100.00;102075.00;6097360;19;20595;-71
2023/10/17 03:23:36;;;;;;;8.52;4.03;;;;;;;7.59;100.00;102075.91;6098066;19;20107;-71
2023/10/17 03:25:46;;;;;;;10.70;3.60;;;;;;;7.59;100.00;102075.91;6098081;19;20825;-71
2023/10/17 03:27:48;;;;;;;12.25;3.95;;;;;;;7.57;100.00;102075.03;6097409;19;20050;-74
2023/10/17 03:29:53;;;;;;;12.57;4.00;;;;;;;7.58;100.00;102071.53;6099709;19;20138;-74
2023/10/17 03:32:03;;;;;;;9.10;4.32;;;;;;;7.58;100.00;102068.91;6099132;19;20431;-74
2023/10/17 03:34:12;;;;;;;11.75;4.38;;;;;;;7.58;100.00;102066.28;6098411;19;20018;-71
2023/10/17 03:38:53;;;;;;;10.85;3.55;;;;;;;7.64;100.00;102072.34;6118320;19;20373;-72
2023/10/17 03:41:02;;;;;;;8.07;3.78;;;;;;;7.61;100.00;102071.50;6118079;19;20134;-74
2023/10/17 03:43:11;;;;;;;5.90;3.60;;;;;;;7.61;100.00;102067.16;6118255;19;20020;-75
2023/10/17 03:45:23;;;;;;;7.63;4.28;;;;;;;7.57;100.00;102068.03;6119475;19;20010;-74
2023/10/17 03:47:31;;;;;;;12.27;3.75;;;;;;;7.55;100.00;102071.56;6114686;19;20938;-74
2023/10/17 03:49:36;;;;;;;7.70;3.47;;;;;;;7.62;100.00;102078.47;6115740;19;20010;-75
2023/10/17 03:51:46;;;;;;;11.30;4.03;;;;;;;7.61;100.00;102082.84;6114257;19;20029;-74
2023/10/17 03:53:54;;;;;;;7.90;3.25;;;;;;;7.60;100.00;102096.78;6112969;19;20003;-74
2023/10/17 03:56:03;;;;;;;8.27;3.67;;;;;;;7.56;100.00;102095.09;6111251;19;20417;-74
2023/10/17 03:58:19;;;;;;;10.57;3.55;;;;;;;7.61;100.00;102097.66;6114539;19;20011;-74
2023/10/17 04:00:28;;;;;;;8.95;3.30;;;;;;;7.60;100.00;102093.31;6114690;19;19998;-74
2023/10/17 04:02:36;;;;;;;8.60;3.28;;;;;;;7.53;100.00;102108.19;6113037;19;20262;-74
2023/10/17 04:04:48;;;;;;;6.95;2.92;;;;;;;7.51;100.00;102106.47;6113498;19;20074;-74
2023/10/17 04:06:57;;;;;;;9.65;3.47;;;;;;;7.60;100.00;102104.63;6115689;19;20010;-74
2023/10/17 04:09:17;;;;;;;10.68;2.90;;;;;;;7.63;100.00;102096.75;6112928;19;20003;-71
2023/10/17 04:11:25;;;;;;;10.35;3.10;;;;;;;7.62;100.00;102102.88;6116225;19;20010;-72
2023/10/17 04:13:37;;;;;;;10.57;3.28;;;;;;;7.57;100.00;102096.81;6118135;19;20002;-72
2023/10/17 04:15:45;;;;;;;4.20;2.80;;;;;;;7.56;100.00;102083.78;6014371;19;2004753;-72
2023/10/17 04:17:50;;;;;;;9.68;3.60;;;;;;;7.55;100.00;102085.50;6120482;19;20430;-73
2023/10/17 04:19:58;;;;;;;8.98;3.28;;;;;;;7.53;100.00;102081.16;6118645;19;20014;-73
2023/10/17 04:22:07;;;;;;;9.70;4.38;;;;;;;7.55;100.00;102090.72;6123576;19;20014;-73
2023/10/17 04:24:34;;;;;;;7.88;3.67;;;;;;;7.52;100.00;102089.88;6121676;19;20091;-73
2023/10/17 04:26:45;;;;;;;11.70;3.72;;;;;;;7.50;100.00;102102.97;6119083;19;20011;-73
2023/10/17 04:28:52;;;;;;;8.05;3.80;;;;;;;7.49;100.00;102088.16;6119991;19;20312;-75
2023/10/17 04:30:59;;;;;;;10.10;4.25;;;;;;;7.51;100.00;102086.41;6117647;19;20574;-72
2023/10/17 04:33:12;;;;;;;10.68;4.68;;;;;;;7.47;100.00;102089.91;6118740;19;20018;-72
2023/10/17 04:35:20;;;;;;;11.75;4.57;;;;;;;7.41;100.00;102088.22;6117273;19;20010;-73
2023/10/17 04:37:31;;;;;;;14.15;4.50;;;;;;;7.39;100.00;102084.75;6112829;19;20006;-73
2023/10/17 04:39:48;;;;;;;11.38;4.20;;;;;;;7.35;100.00;102083.03;6109022;19;20030;-74
2023/10/17 04:42:09;;;;;;;9.35;3.97;;;;;;;7.35;100.00;102083.03;6010442;19;2004771;-73
2023/10/17 04:44:20;;;;;;;12.23;4.28;;;;;;;7.37;100.00;102080.41;6111127;19;20015;-72
2023/10/17 04:46:26;;;;;;;13.93;5.30;;;;;;;7.36;100.00;102081.28;6112159;19;20107;-73
2023/10/17 04:48:40;;;;;;;9.05;4.95;;;;;;;7.36;100.00;102074.31;6108322;19;20010;-73
2023/10/17 04:50:56;;;;;;;9.63;4.75;;;;;;;7.32;100.00;102083.06;6088993;19;20027;-74
2023/10/17 04:53:01;;;;;;;13.98;5.07;;;;;;;7.25;100.00;102071.78;6083257;19;20010;-73
2023/10/17 04:55:17;;;;;;;11.65;5.00;;;;;;;7.24;100.00;102074.38;6086210;19;20006;-73
2023/10/17 04:57:40;;;;;;;9.80;4.88;;;;;;;7.26;100.00;102075.25;6087779;19;20033;-74
2023/10/17 04:59:55;;;;;;;11.23;5.35;;;;;;;7.23;100.00;102081.38;6086377;19;20021;-74
2023/10/17 05:02:18;;;;;;;;;;;;;;;7.28;100.00;102073.50;6083141;19;20045;-74
2023/10/17 05:04:20;;;;;;;14.38;4.85;;;;;;;7.24;100.00;102082.22;6088049;19;19915;-74
2023/10/17 05:06:52;;;;;;;;;;;;;;;7.25;100.00;102071.78;6086983;19;20021;-73
2023/10/17 06:18:38;;;;;;;18.60;5.80;;;;;;;7.01;100.00;102051.91;6087117;19;20010;-74
2023/10/17 06:35:03;;;;;;;12.10;5.15;;;;;;;6.95;100.00;102059.78;6088203;19;20742;-73
2023/10/17 06:37:07;;;;;;;15.02;5.50;;;;;;;6.97;100.00;102051.91;5988316;19;2004954;-75
2023/10/17 06:39:17;;;;;;;10.25;6.05;;;;;;;6.96;100.00;102060.66;6089587;19;20447;-74
2023/10/17 06:41:27;;;;;;;12.77;5.35;;;;;;;6.99;100.00;102060.63;6090583;19;20027;-72
2023/10/17 06:43:35;;;;;;;13.57;5.45;;;;;;;6.98;100.00;102074.56;6085000;19;20847;-72
2023/10/17 06:45:52;;;;;;;12.95;4.68;;;;;;;6.90;100.00;102073.72;6085017;19;20014;-74
2023/10/17 06:48:07;;;;;;;11.48;4.03;;;;;;;6.94;100.00;102075.47;6075202;19;20070;-73
2023/10/17 06:50:20;;;;;;;10.70;4.22;;;;;;;6.93;100.00;102074.59;6077056;19;20033;-74
2023/10/17 06:52:34;;;;;;;14.93;4.50;;;;;;;6.97;100.00;102071.06;6078958;19;20009;-74
2023/10/17 06:54:41;;;;;;;10.93;4.90;;;;;;;6.94;100.00;102071.09;6083438;19;20142;-74
2023/10/17 06:56:49;;;;;;;8.70;4.13;;;;;;;6.97;100.00;102064.97;6085033;19;20011;-74
2023/10/17 06:59:03;;;;;;;12.23;4.78;;;;;;;6.94;100.00;102063.25;6084572;19;20010;-71
2023/10/17 07:01:19;;;;;;;13.75;5.45;;;;;;;7.01;100.00;102075.41;6082878;19;20002;-73
2023/10/17 07:03:28;;;;;;;11.00;5.35;;;;;;;7.02;100.00;102066.69;6088464;19;20014;-73
2023/10/17 07:05:36;;;;;;;10.73;4.22;;;;;;;6.95;100.00;102074.56;6085592;19;20273;-74
2023/10/17 07:07:45;;;;;;;13.32;4.65;;;;;;;6.98;100.00;102070.22;6084037;19;20006;-73
2023/10/17 07:09:52;;;;;;;8.45;4.38;;;;;;;7.01;100.00;102069.34;6084150;19;20010;-73
2023/10/17 07:12:02;;;;;;;10.95;4.82;;;;;;;7.07;100.00;102071.03;6084385;19;20537;-73
2023/10/17 07:14:22;;;;;;;10.23;4.47;;;;;;;7.08;100.00;102071.00;6091486;19;20002;-72
2023/10/17 07:16:33;;;;;;;7.60;3.95;;;;;;;7.07;100.00;102069.28;6086675;19;20018;-75
2023/10/17 07:18:47;;;;;;;9.18;4.32;;;;;;;7.13;100.00;102057.91;6088380;19;20011;-73
2023/10/17 07:23:14;;;;;;;13.52;4.85;;;;;;;7.16;100.00;102065.72;6083432;19;20021;-74
2023/10/17 07:25:19;;;;;;;6.80;4.07;;;;;;;7.23;100.00;102065.69;6093365;19;20002;-74
2023/10/17 07:27:33;;;;;;;10.63;4.75;;;;;;;7.26;100.00;102067.41;6089400;19;20634;-74
2023/10/17 07:29:45;;;;;;;7.38;4.13;;;;;;;7.29;100.00;102066.50;6086860;19;19998;-74
2023/10/17 07:31:52;;;;;;;16.92;5.00;;;;;;;7.31;100.00;102059.53;6084233;19;20288;-74
2023/10/17 07:34:16;;;;;;;8.82;4.78;;;;;;;7.35;100.00;102063.88;6083332;19;20023;-73
2023/10/17 07:36:21;;;;;;;13.38;4.97;;;;;;;7.40;100.00;102068.19;6084214;19;20446;-74
2023/10/17 07:38:28;;;;;;;13.75;5.45;;;;;;;7.40;100.00;102062.97;6084469;19;20024;-75
2023/10/17 07:40:58;;;;;;;14.13;5.30;;;;;;;7.47;100.00;102059.41;6085317;19;20549;-74
2023/10/17 07:43:07;;;;;;;15.10;5.28;;;;;;;7.53;100.00;102062.84;6081836;19;20009;-72
2023/10/17 07:45:14;;;;;;;20.08;6.30;;;;;;;7.60;100.00;102060.16;6074920;19;20014;-74
2023/10/17 07:47:33;;;;;;;16.48;6.53;;;;;;;7.62;100.00;102050.56;6082309;19;20094;-73
2023/10/17 07:49:47;;;;;;;21.67;8.35;;;;;;;7.63;100.00;102047.06;6081925;19;20101;-73
2023/10/17 07:51:52;;;;;;;23.85;8.02;;;;;;;7.69;100.00;102048.78;6085344;19;20006;-75
2023/10/17 07:53:58;;;;;;;18.83;6.47;;;;;;;7.75;100.00;102042.63;6084281;19;20383;-73
2023/10/17 07:56:12;;;;;;;21.90;8.52;;;;;;;7.76;100.00;102045.19;6087443;19;20006;-73
2023/10/17 07:58:38;;;;;;;22.48;8.55;;;;;;;7.85;100.00;102050.34;6087020;19;20010;-74
2023/10/17 08:00:48;;;;;;;24.58;8.32;;;;;;;7.90;100.00;102050.31;6084641;19;20010;-73
2023/10/17 08:02:54;;;;;;;20.48;7.82;;;;;;;7.95;100.00;102048.50;6086867;19;20015;-74
2023/10/17 08:05:16;;;;;;;23.25;8.20;;;;;;;7.97;100.00;102049.34;6081172;19;20003;-74
2023/10/17 08:07:22;;;;;;;23.70;7.82;;;;;;;8.04;100.00;102051.03;5999265;19;2005232;-73
2023/10/17 08:09:36;;;;;;;25.20;8.35;;;;;;;8.18;100.00;102052.63;6085818;19;20038;-74
2023/10/17 08:11:44;;;;;;;22.25;8.55;;;;;;;8.27;100.00;102056.03;6086793;19;20019;-74
2023/10/17 08:13:46;;;;;;;17.77;7.25;;;;;;;8.38;100.00;102055.03;6085247;19;20046;-74
2023/10/17 08:16:04;;;;;;;21.77;7.40;;;;;;;8.50;100.00;102054.91;6086353;19;20074;-74
2023/10/17 08:18:14;;;;;;;22.80;8.32;;;;;;;8.61;100.00;102060.91;6085765;19;20077;-74
2023/10/17 08:25:13;;;;;;;;;;;;;;;8.97;100.00;102051.63;6090892;19;20525;-73
2023/10/17 08:29:42;;;;;;;27.23;9.23;;;;;;;9.23;100.00;102051.25;5988571;19;2004881;-75
2023/10/17 08:31:51;;;;;;;28.23;8.60;;;;;;;9.35;100.00;102054.59;6089142;19;20002;-74
2023/10/17 08:33:57;;;;;;;22.58;8.65;;;;;;;9.46;100.00;102055.28;6077495;19;20014;-75
2023/10/17 08:36:14;;;;;;;26.75;7.55;;;;;;;9.48;100.00;102057.88;6089642;19;19999;-73
2023/10/17 08:38:17;;;;;;;23.60;9.77;;;;;;;9.75;100.00;102048.69;6089542;19;20014;-72
2023/10/17 08:42:49;;;;;;;20.98;8.60;;;;;;;9.87;100.00;102056.31;6087308;19;20003;-72
2023/10/17 08:44:56;;;;;;;27.30;10.55;;;;;;;9.92;100.00;102062.34;6085312;19;20332;-72
2023/10/17 08:47:03;;;;;;;22.55;9.60;;;;;;;9.94;100.00;102063.19;6087922;19;20013;-73
2023/10/17 08:49:11;;;;;;;28.73;9.38;;;;;;;9.98;100.00;102059.63;6089692;19;20506;-73
2023/10/17 08:51:19;;;;;;;34.25;10.60;;;;;;;9.98;100.00;102062.25;6085602;19;20385;-74
2023/10/17 08:53:34;;;;;;;28.83;10.25;;;;;;;9.87;100.00;102061.56;6078118;19;20045;-73
2023/10/17 08:55:41;;;;;;;20.95;10.70;;;;;;;9.95;100.00;102069.31;6086897;19;20011;-72
2023/10/17 08:57:48;;;;;;;25.55;10.73;;;;;;;10.19;100.00;102068.88;6090209;19;20021;-74
2023/10/17 09:02:28;;;;;;;27.23;10.50;;;;;;;10.26;100.00;102062.56;6089662;19;20106;-73
2023/10/17 09:04:38;;;;;;;29.05;10.70;;;;;;;10.36;100.00;102071.19;6092249;19;20010;-73
2023/10/17 09:06:49;;;;;;;27.50;10.68;;;;;;;10.53;100.00;102069.09;6091552;19;20085;-73
2023/10/17 09:08:55;;;;;;;31.23;11.18;;;;;;;10.59;100.00;102065.47;6088114;19;20027;-72
2023/10/17 09:11:07;;;;;;;29.67;11.10;;;;;;;10.83;100.00;102066.72;6087200;19;20007;-72
2023/10/17 09:13:52;;;;;;;32.30;11.63;;;;;;;10.88;99.29;102070.09;6085781;19;20011;-72
2023/10/17 09:15:48;;;;;;;30.05;10.30;;;;;;;11.12;98.64;102073.94;6001373;19;2004809;-73
2023/10/17 09:18:07;;;;;;;26.80;10.80;;;;;;;11.15;97.46;102073.00;6085315;19;20011;-73
2023/10/17 09:20:16;;;;;;;31.15;11.23;;;;;;;11.07;97.49;102067.91;6087175;19;20449;-73
2023/10/17 09:22:44;;;;;;;26.75;10.57;;;;;;;11.02;97.15;102058.41;6082765;19;20014;-73
2023/10/17 09:24:53;;;;;;;27.80;10.80;;;;;;;11.17;97.00;102053.66;6085290;19;20034;-73
2023/10/17 09:26:56;;;;;;;22.27;10.70;;;;;;;11.45;96.92;102057.38;6089084;19;20054;-72
2023/10/17 09:29:05;;;;;;;41.17;11.65;;;;;;;11.42;94.98;102055.69;6078539;19;20033;-73
2023/10/17 09:31:12;;;;;;;36.40;10.65;;;;;;;11.21;94.37;102051.81;6087593;19;20363;-74
2023/10/17 09:33:31;;;;;;;26.65;10.80;;;;;;;11.20;93.83;102053.56;6077304;19;20526;-74
2023/10/17 09:37:59;;;;;;;29.50;10.77;;;;;;;11.49;93.13;102051.16;5968618;19;2004820;-73
2023/10/17 09:40:11;;;;;;;36.05;11.23;;;;;;;11.64;93.11;102042.88;6077790;19;20375;-76
2023/10/17 09:42:17;;;;;;;30.80;10.98;;;;;;;11.75;91.79;102053.13;6075546;19;20544;-73
2023/10/17 09:44:23;;;;;;;30.70;10.65;;;;;;;11.69;90.39;102048.88;6076468;19;20003;-75
2023/10/17 09:46:29;;;;;;;30.50;10.52;;;;;;;11.67;91.54;102050.69;6075310;19;20593;-73
2023/10/17 09:48:37;;;;;;;32.13;11.43;;;;;;;11.75;91.07;102046.09;6076652;19;20006;-74
2023/10/17 09:50:49;;;;;;;20.02;9.15;;;;;;;11.63;91.32;102046.38;6074679;19;20006;-73
2023/10/17 09:53:01;;;;;;;30.15;11.45;;;;;;;11.90;91.29;102051.88;6077376;19;20006;-74
2023/10/17 09:55:09;;;;;;;28.88;9.68;;;;;;;11.98;89.23;102037.59;6080365;19;20006;-74
2023/10/17 09:57:24;;;;;;;23.50;8.98;;;;;;;12.01;88.23;102041.94;6085876;19;20010;-74
2023/10/17 09:59:40;;;;;;;21.88;9.05;;;;;;;12.16;89.26;102044.13;6090947;19;20019;-74
2023/10/17 10:01:50;;;;;;;26.13;9.00;;;;;;;12.33;87.97;102035.75;6073560;19;20029;-74
2023/10/17 10:04:01;;;;;;;23.88;9.52;;;;;;;12.39;87.61;102034.72;6085045;19;20563;-75
2023/10/17 10:06:25;;;;;;;26.08;9.27;;;;;;;12.55;88.34;102037.75;6085302;19;20053;-74
2023/10/17 10:08:34;;;;;;;21.00;8.93;;;;;;;12.68;87.62;102031.22;6092555;19;20082;-74
2023/10/17 10:10:56;;;;;;;21.52;8.27;;;;;;;12.49;84.79;102036.16;6081274;19;20017;-73
2023/10/17 10:13:08;;;;;;;20.77;8.00;;;;;;;12.49;85.05;102033.53;6081854;19;20003;-75
2023/10/17 10:16:02;;;;;;;19.52;6.65;;;;;;;12.38;85.23;102023.31;6083456;19;20474;-74
2023/10/17 10:18:12;;;;;;;21.27;7.43;;;;;;;12.50;83.33;102022.94;5978161;19;2004886;-73
2023/10/17 10:20:19;;;;;;;17.80;6.78;;;;;;;12.65;83.40;102013.69;6080371;19;20112;-74
2023/10/17 10:22:23;;;;;;;16.60;6.25;;;;;;;12.55;81.47;102021.94;6079037;19;20003;-74
2023/10/17 10:24:34;;;;;;;13.05;6.03;;;;;;;12.54;82.26;102018.44;6079022;19;20629;-75
2023/10/17 10:26:42;;;;;;;15.82;5.93;;;;;;;12.52;82.48;102020.25;6078415;19;20097;-73
2023/10/17 10:28:56;;;;;;;14.70;6.78;;;;;;;12.54;83.39;102023.72;6078178;19;20006;-73
2023/10/17 10:31:01;;;;;;;15.93;7.45;;;;;;;12.62;81.85;102024.34;6076403;19;20068;-73
2023/10/17 10:33:11;;;;;;;15.80;7.15;;;;;;;12.78;82.63;102026.53;6077010;19;20009;-74
2023/10/17 10:35:18;;;;;;;18.05;6.10;;;;;;;13.14;82.46;102029.78;6077720;19;20007;-73
2023/10/17 10:37:22;;;;;;;19.48;6.18;;;;;;;13.24;80.37;102023.28;6079264;19;20014;-73
2023/10/17 10:39:28;;;;;;;18.98;6.53;;;;;;;13.13;80.50;102017.50;6079119;19;20019;-73
2023/10/17 10:41:38;;;;;;;16.58;6.55;;;;;;;12.98;80.04;102012.69;6075266;19;20014;-75
2023/10/17 10:43:42;;;;;;;16.17;6.80;;;;;;;13.31;80.32;102016.06;6078913;19;20135;-74
2023/10/17 10:45:50;;;;;;;13.70;5.63;;;;;;;13.32;80.47;102007.22;6078521;19;20010;-74
2023/10/17 10:47:58;;;;;;;13.80;6.00;;;;;;;13.36;79.82;102003.56;6075337;19;20442;-74
2023/10/17 10:50:05;;;;;;;14.60;6.18;;;;;;;13.40;79.65;102002.53;6075208;19;20006;-73
2023/10/17 10:52:12;;;;;;;15.07;5.50;;;;;;;13.29;79.17;102008.19;6077363;19;20020;-73
2023/10/17 10:54:21;;;;;;;16.13;6.25;;;;;;;13.32;79.67;101991.38;6074453;19;20025;-75
2023/10/17 10:56:28;;;;;;;10.50;5.20;;;;;;;13.39;77.40;101992.91;6074463;19;20448;-76
2023/10/17 10:58:47;;;;;;;14.13;5.20;;;;;;;13.20;77.42;101992.63;6078869;19;20349;-77
2023/10/17 11:01:04;;;;;;;11.40;4.32;;;;;;;13.35;77.21;101996.59;6074745;19;20006;-78
2023/10/17 11:03:17;;;;;;;13.52;5.22;;;;;;;13.12;74.90;101989.38;6076842;19;20003;-75
2023/10/17 11:05:25;;;;;;;11.35;4.70;;;;;;;13.18;76.29;101983.88;6077278;19;20006;-77
2023/10/17 11:07:31;;;;;;;10.45;4.53;;;;;;;13.34;74.85;101976.34;6080675;19;20003;-77
2023/10/17 11:09:38;;;;;;;13.30;6.40;;;;;;;13.44;74.96;101975.13;6081608;19;20003;-77
2023/10/17 11:11:46;;;;;;;12.50;4.53;;;;;;;13.40;75.95;101970.84;6079479;19;20010;-77
2023/10/17 11:13:56;;;;;;;14.95;5.70;;;;;;;13.63;74.69;101969.22;6082187;19;20014;-77
2023/10/17 11:16:04;;;;;;;10.85;4.35;;;;;;;13.79;73.83;101967.75;6078014;19;20025;-77
2023/10/17 11:18:08;;;;;;;12.45;4.43;;;;;;;13.75;72.99;101974.06;6082627;19;20470;-77
2023/10/17 11:20:20;;;;;;;9.75;4.20;;;;;;;13.88;72.50;101979.78;6080785;19;20003;-77
2023/10/17 11:22:29;;;;;;;16.55;5.47;;;;;;;13.60;72.48;101968.41;6081617;19;20014;-77
2023/10/17 11:24:35;;;;;;;10.52;5.13;;;;;;;13.71;72.90;101967.16;6084616;19;20006;-77
2023/10/17 11:26:50;;;;;;;9.63;4.30;;;;;;;13.71;72.86;101969.78;6071025;19;20011;-76
2023/10/17 11:29:05;;;;;;;11.07;4.70;;;;;;;13.78;71.97;101958.09;6074128;19;20002;-76
2023/10/17 11:31:46;;;;;;;;;;;;;;;;;;;;;
2023/10/17 11:34:56;;;;;;;11.80;5.10;;;;;;;13.72;73.32;101943.34;6070755;19;20449;-75
2023/10/17 11:37:55;;;;;;;13.93;4.90;;;;;;;13.79;73.63;101928.09;5971348;19;2004696;-75
2023/10/17 11:43:51;;;;;;;11.45;5.15;;;;;;;13.83;72.88;101949.09;5971136;19;2004712;-77
2023/10/17 11:46:12;;;;;;;11.77;4.85;;;;;;;13.80;73.24;101946.56;6068814;19;20010;-75
2023/10/17 11:48:39;;;;;;;21.63;5.30;;;;;;;13.69;73.07;101938.19;6075861;19;20003;-77
2023/10/17 11:50:58;;;;;;;6.95;3.58;;;;;;;13.90;71.39;101925.97;6074301;19;20055;-79
2023/10/17 11:53:25;;;;;;;;;;;;;;;;;;;;;
2023/10/17 11:55:51;;;;;;;9.20;3.97;;;;;;;13.79;69.28;101918.41;5972095;19;2004841;-75